createdAt,value
2022-10-15T00:00:54.914Z,91.85
2022-10-15T00:01:55.196Z,91.97
2022-10-15T00:02:55.488Z,92.23
2022-10-15T00:03:56.086Z,92.3
2022-10-15T00:04:56.371Z,92.16
2022-10-15T00:05:56.780Z,92.22
2022-10-15T00:06:57.091Z,92.35
2022-10-15T00:07:57.718Z,92.19
2022-10-15T00:08:58.041Z,92.08
2022-10-15T00:09:58.194Z,91.93
2022-10-15T00:12:01.438Z,91.95
2022-10-15T00:14:02.264Z,92.19
2022-10-15T00:15:02.781Z,92
2022-10-15T00:16:04.018Z,91.71
2022-10-15T00:17:03.306Z,92.03
2022-10-15T00:18:04.026Z,91.76
2022-10-15T00:19:04.352Z,91.84
2022-10-15T00:20:06.809Z,91.88
2022-10-15T00:22:09.602Z,91.9
2022-10-15T00:23:09.701Z,91.94
2022-10-15T00:24:10.207Z,91.94
2022-10-15T00:25:10.842Z,91.89
2022-10-15T00:27:13.104Z,91.81
2022-10-15T00:28:13.626Z,91.88
2022-10-15T00:29:14.136Z,91.95
2022-10-15T00:30:14.547Z,92.07
2022-10-15T00:31:17.225Z,92.14
2022-10-15T00:32:15.292Z,92.04
2022-10-15T00:33:15.795Z,91.88
2022-10-15T00:34:16.018Z,91.86
2022-10-15T00:35:16.734Z,91.61
2022-10-15T00:36:20.345Z,91.65
2022-10-15T00:37:17.972Z,91.62
2022-10-15T00:38:18.302Z,91.67
2022-10-15T00:39:18.675Z,91.68
2022-10-15T00:40:19.027Z,91.83
2022-10-15T00:41:22.720Z,91.66
2022-10-15T00:42:20.394Z,91.82
2022-10-15T00:45:24.184Z,91.83
2022-10-15T00:48:30.496Z,91.4
2022-10-15T00:49:37.935Z,91.34
2022-10-15T00:50:30.552Z,91.16
2022-10-15T00:51:37.118Z,90.91
2022-10-15T00:53:37.183Z,91.1
2022-10-15T00:55:43.388Z,90.62
2022-10-15T00:56:43.465Z,90.38
2022-10-15T00:57:42.682Z,90.62
2022-10-15T00:58:42.489Z,91.03
2022-10-15T01:00:45.152Z,90.7
2022-10-15T01:01:45.585Z,90.6
2022-10-15T01:02:46.109Z,90.44
2022-10-15T01:03:46.731Z,90.21
2022-10-15T01:04:47.957Z,90.27
2022-10-15T01:05:50.221Z,90.23
2022-10-15T01:06:47.762Z,90.39
2022-10-15T01:07:47.964Z,90.23
2022-10-15T01:08:48.458Z,90.25
2022-10-15T01:09:49.017Z,90.21
2022-10-15T01:11:56.307Z,90.23
2022-10-15T01:27:45.912Z,89.6
2022-10-15T01:43:15.547Z,90.4
2022-10-15T01:45:22.937Z,90.27
2022-10-15T01:48:29.819Z,90.26
2022-10-15T01:50:32.491Z,90.14
2022-10-15T01:51:33.827Z,90.36
2022-10-15T01:53:34.964Z,90.52
2022-10-15T01:54:34.972Z,90.55
2022-10-15T01:55:36.916Z,90.79
2022-10-15T01:56:36.366Z,91.07
2022-10-15T01:57:35.464Z,90.85
2022-10-15T01:59:38.285Z,90.87
2022-10-15T02:00:39.875Z,90.85
2022-10-15T02:02:40.653Z,91.26
2022-10-15T02:04:41.027Z,91.14
2022-10-15T02:05:47.228Z,91.06
2022-10-15T02:06:48.637Z,91.01
2022-10-15T02:15:23.545Z,90.86
2022-10-15T02:24:41.620Z,90.33
2022-10-15T02:25:40.483Z,90.31
2022-10-15T02:26:41.096Z,90.45
2022-10-15T02:27:42.455Z,90.34
2022-10-15T02:28:43.542Z,90.5
2022-10-15T02:29:45.439Z,90.34
2022-10-15T02:30:45.821Z,90.43
2022-10-15T02:31:46.127Z,90.47
2022-10-15T02:32:47.607Z,90.45
2022-10-15T02:33:46.155Z,90.39
2022-10-15T02:34:47.106Z,90.58
2022-10-15T02:35:47.825Z,90.39
2022-10-15T02:36:47.017Z,90.52
2022-10-15T02:37:50.316Z,90.59
2022-10-15T02:38:49.089Z,90.58
2022-10-15T02:39:48.370Z,90.54
2022-10-15T02:40:49.196Z,90.41
2022-10-15T02:41:49.415Z,90.64
2022-10-15T02:42:51.736Z,90.7
2022-10-15T02:43:49.620Z,90.75
2022-10-15T02:44:49.938Z,90.56
2022-10-15T02:45:50.460Z,90.67
2022-10-15T02:46:50.822Z,90.66
2022-10-15T02:47:51.248Z,90.72
2022-10-15T02:48:51.607Z,90.67
2022-10-15T02:49:51.846Z,91.03
2022-10-15T02:50:52.338Z,90.9
2022-10-15T02:51:52.766Z,90.89
2022-10-15T02:52:53.377Z,90.98
2022-10-15T02:53:53.479Z,91.07
2022-10-15T02:54:54.003Z,91.03
2022-10-15T02:55:54.218Z,91.13
2022-10-15T02:56:54.728Z,91.11
2022-10-15T02:57:55.146Z,91.11
2022-10-15T02:58:55.661Z,91.16
2022-10-15T02:59:55.772Z,91.07
2022-10-15T03:00:56.270Z,90.88
2022-10-15T03:01:56.506Z,91.01
2022-10-15T03:02:57.094Z,91.16
2022-10-15T03:03:57.331Z,91.04
2022-10-15T03:04:57.852Z,91.17
2022-10-15T03:05:58.278Z,91.11
2022-10-15T03:06:58.481Z,91.33
2022-10-15T03:08:00.346Z,91.79
2022-10-15T03:08:59.326Z,91.78
2022-10-15T03:09:59.735Z,91.6
2022-10-15T03:11:01.278Z,91.72
2022-10-15T03:12:00.563Z,91.28
2022-10-15T03:13:04.936Z,91.18
2022-10-15T03:14:02.299Z,91.2
2022-10-15T03:15:02.847Z,91.21
2022-10-15T03:16:07.271Z,91.29
2022-10-15T03:17:04.544Z,91.36
2022-10-15T03:18:05.838Z,91.63
2022-10-15T03:19:05.425Z,91.76
2022-10-15T03:20:06.757Z,92.03
2022-10-15T03:21:06.253Z,91.95
2022-10-15T03:22:06.584Z,91.96
2022-10-15T03:23:07.097Z,91.98
2022-10-15T03:24:07.717Z,91.89
2022-10-15T03:25:08.326Z,91.51
2022-10-15T03:26:08.437Z,91.9
2022-10-15T03:27:08.826Z,92.26
2022-10-15T03:28:08.967Z,92.27
2022-10-15T03:29:09.382Z,92.16
2022-10-15T03:30:10.824Z,92.23
2022-10-15T03:31:10.318Z,91.98
2022-10-15T03:32:10.472Z,92.43
2022-10-15T03:33:11.203Z,92.36
2022-10-15T03:34:11.263Z,92.26
2022-10-15T03:35:11.887Z,92.3
2022-10-15T03:36:11.940Z,92.15
2022-10-15T03:37:12.517Z,92.14
2022-10-15T03:38:12.925Z,92.1
2022-10-15T03:39:13.768Z,91.99
2022-10-15T03:40:14.717Z,92.26
2022-10-15T03:41:14.077Z,92.39
2022-10-15T03:42:14.803Z,92.32
2022-10-15T03:43:14.901Z,92.55
2022-10-15T03:44:15.731Z,92.55
2022-10-15T03:45:15.986Z,92.58
2022-10-15T03:46:16.053Z,92.5
2022-10-15T03:47:16.533Z,92.38
2022-10-15T03:48:16.671Z,92.53
2022-10-15T03:49:17.196Z,92.57
2022-10-15T03:50:17.711Z,92.45
2022-10-15T03:51:22.019Z,92.23
2022-10-15T03:52:22.403Z,92.61
2022-10-15T03:53:22.350Z,92.55
2022-10-15T03:54:22.770Z,92.67
2022-10-15T03:55:23.273Z,92.59
2022-10-15T03:56:23.586Z,92.76
2022-10-15T03:57:24.007Z,92.69
2022-10-15T03:58:24.420Z,92.65
2022-10-15T03:59:24.831Z,92.72
2022-10-15T04:00:25.262Z,92.82
2022-10-15T04:01:25.632Z,92.69
2022-10-15T04:02:26.611Z,93.05
2022-10-15T04:03:26.292Z,93.21
2022-10-15T04:04:26.618Z,93.16
2022-10-15T04:05:27.138Z,93.49
2022-10-15T04:06:27.400Z,93.53
2022-10-15T04:07:27.954Z,93.33
2022-10-15T04:08:28.377Z,93.3
2022-10-15T04:09:28.495Z,93.49
2022-10-15T04:10:29.307Z,93.86
2022-10-15T04:11:29.515Z,94.08
2022-10-15T04:12:29.636Z,94.34
2022-10-15T04:13:30.256Z,94.57
2022-10-15T04:14:30.776Z,94.59
2022-10-15T04:15:31.138Z,94.25
2022-10-15T04:16:31.146Z,94.61
2022-10-15T04:17:31.710Z,94.96
2022-10-15T04:18:32.641Z,95.17
2022-10-15T04:19:32.616Z,95.17
2022-10-15T04:20:32.956Z,94.94
2022-10-15T04:21:33.276Z,94.85
2022-10-15T04:22:33.594Z,95.15
2022-10-15T04:23:34.216Z,95.24
2022-10-15T04:24:34.317Z,95.28
2022-10-15T04:25:36.194Z,95.12
2022-10-15T04:26:35.016Z,95.31
2022-10-15T04:27:35.580Z,95.08
2022-10-15T04:28:36.094Z,94.73
2022-10-15T04:29:36.196Z,95.09
2022-10-15T04:30:36.615Z,95.02
2022-10-15T04:31:37.028Z,95.41
2022-10-15T04:32:37.555Z,95.29
2022-10-15T04:33:37.767Z,95.58
2022-10-15T04:34:38.086Z,95.69
2022-10-15T04:35:38.455Z,95.55
2022-10-15T04:36:39.007Z,95.96
2022-10-15T04:37:39.386Z,96.38
2022-10-15T04:38:41.040Z,96.15
2022-10-15T04:39:40.477Z,96.05
2022-10-15T04:40:40.361Z,96.32
2022-10-15T04:41:40.629Z,96.5
2022-10-15T04:42:41.408Z,96.58
2022-10-15T04:43:41.563Z,96.47
2022-10-15T04:44:42.036Z,96.6
2022-10-15T04:45:42.236Z,96.55
2022-10-15T04:46:42.616Z,96.79
2022-10-15T04:47:43.695Z,97.01
2022-10-15T04:48:43.624Z,96.73
2022-10-15T04:49:44.018Z,97
2022-10-15T04:50:44.230Z,96.93
2022-10-15T04:51:44.648Z,96.88
2022-10-15T04:52:45.057Z,96.86
2022-10-15T04:53:45.735Z,97.31
2022-10-15T04:54:46.082Z,97.36
2022-10-15T04:55:46.812Z,97.18
2022-10-15T04:56:46.362Z,97.5
2022-10-15T04:57:47.031Z,97.59
2022-10-15T04:58:48.671Z,97.66
2022-10-15T04:59:47.655Z,97.86
2022-10-15T05:00:47.945Z,97.93
2022-10-15T05:01:48.528Z,98.11
2022-10-15T05:02:48.702Z,97.9
2022-10-15T05:03:49.581Z,98.27
2022-10-15T05:04:49.694Z,98.57
2022-10-15T05:05:49.801Z,98.64
2022-10-15T05:06:50.361Z,98.65
2022-10-15T05:07:50.573Z,98.61
2022-10-15T05:08:51.607Z,98.7
2022-10-15T05:09:51.401Z,98.95
2022-10-15T05:10:51.621Z,98.95
2022-10-15T05:11:52.346Z,98.8
2022-10-15T05:12:55.774Z,98.69
2022-10-15T05:13:57.948Z,98.43
2022-10-15T05:14:55.224Z,98.18
2022-10-15T05:15:55.747Z,98.21
2022-10-15T05:16:56.063Z,98.32
2022-10-15T05:17:56.486Z,98.44
2022-10-15T05:18:59.246Z,98.44
2022-10-15T05:19:57.166Z,98.45
2022-10-15T05:21:01.716Z,98.51
2022-10-15T05:21:59.025Z,98.68
2022-10-15T05:22:59.345Z,98.48
2022-10-15T05:24:00.123Z,98.23
2022-10-15T05:25:00.218Z,98.55
2022-10-15T05:26:06.337Z,98.21
2022-10-15T05:27:04.324Z,98.06
2022-10-15T05:28:04.586Z,98.17
2022-10-15T05:29:04.776Z,98.33
2022-10-15T05:30:05.582Z,98.4
2022-10-15T05:31:14.746Z,98.47
2022-10-15T05:32:10.284Z,98.42
2022-10-15T05:33:10.607Z,98.45
2022-10-15T05:34:13.901Z,98.41
2022-10-15T05:35:11.337Z,98.41
2022-10-15T05:36:17.182Z,98.49
2022-10-15T05:37:14.433Z,98.47
2022-10-15T05:38:15.047Z,98.34
2022-10-15T05:39:15.156Z,98.36
2022-10-15T05:40:18.332Z,98.38
2022-10-15T05:41:19.264Z,98.54
2022-10-15T05:42:19.070Z,98.49
2022-10-15T05:43:19.280Z,98.14
2022-10-15T05:44:19.651Z,97.9
2022-10-15T05:45:20.104Z,97.74
2022-10-15T05:46:21.231Z,97.71
2022-10-15T05:47:21.588Z,97.43
2022-10-15T05:48:21.348Z,97.35
2022-10-15T05:49:21.462Z,97.11
2022-10-15T05:50:23.004Z,97.06
2022-10-15T05:51:23.106Z,97.08
2022-10-15T05:52:23.110Z,97.02
2022-10-15T05:53:23.030Z,97.15
2022-10-15T05:54:23.548Z,97.07
2022-10-15T05:55:23.764Z,96.68
2022-10-15T05:56:25.496Z,96.85
2022-10-15T05:57:24.481Z,96.64
2022-10-15T05:58:32.034Z,96.58
2022-10-15T05:59:27.226Z,96.77
2022-10-15T06:00:27.779Z,96.56
2022-10-15T06:01:28.297Z,96.48
2022-10-15T06:02:29.062Z,96.88
2022-10-15T06:03:29.441Z,96.24
2022-10-15T06:04:31.791Z,96.05
2022-10-15T06:05:32.625Z,96.86
2022-10-15T06:06:32.736Z,96.24
2022-10-15T06:07:32.942Z,96.35
2022-10-15T06:08:33.384Z,96.25
2022-10-15T06:09:33.748Z,96.48
2022-10-15T06:10:36.542Z,95.74
2022-10-15T06:11:36.048Z,95.81
2022-10-15T06:12:34.926Z,95.2
2022-10-15T06:13:35.200Z,94.99
2022-10-15T06:14:35.566Z,94.87
2022-10-15T06:15:39.966Z,94.34
2022-10-15T06:16:37.486Z,94.51
2022-10-15T06:17:37.719Z,94.41
2022-10-15T06:18:38.884Z,94.23
2022-10-15T06:19:38.565Z,94.38
2022-10-15T06:20:38.769Z,94.4
2022-10-15T06:21:39.178Z,94.57
2022-10-15T06:22:39.931Z,94.36
2022-10-15T06:23:40.129Z,94.06
2022-10-15T06:24:40.339Z,94.11
2022-10-15T06:25:40.723Z,94.06
2022-10-15T06:26:41.158Z,93.92
2022-10-15T06:27:41.477Z,93.87
2022-10-15T06:28:42.046Z,93.74
2022-10-15T06:29:42.266Z,93.41
2022-10-15T06:30:43.288Z,93.45
2022-10-15T06:31:42.932Z,93.35
2022-10-15T06:33:46.124Z,92.96
2022-10-15T06:34:46.325Z,92.87
2022-10-15T06:35:46.713Z,92.65
2022-10-15T06:36:47.261Z,92.39
2022-10-15T06:37:48.302Z,92.24
2022-10-15T06:38:48.200Z,92.17
2022-10-15T06:39:48.308Z,91.75
2022-10-15T06:40:48.733Z,91.68
2022-10-15T06:41:49.113Z,91.69
2022-10-15T06:42:49.460Z,91.57
2022-10-15T06:43:50.485Z,91.57
2022-10-15T06:44:50.294Z,91.63
2022-10-15T06:45:50.917Z,91.23
2022-10-15T06:46:50.914Z,91.31
2022-10-15T06:47:51.339Z,91.2
2022-10-15T06:48:51.958Z,90.95
2022-10-15T06:49:52.380Z,91.04
2022-10-15T06:50:52.434Z,90.87
2022-10-15T06:51:52.993Z,90.99
2022-10-15T06:52:53.350Z,90.56
2022-10-15T06:53:53.784Z,90.47
2022-10-15T06:54:54.142Z,90.24
2022-10-15T06:56:03.060Z,89.97
2022-10-15T06:56:56.310Z,89.79
2022-10-15T06:57:56.947Z,89.78
2022-10-15T06:58:56.226Z,89.72
2022-10-15T06:59:56.709Z,89.82
2022-10-15T07:01:01.403Z,89.59
2022-10-15T07:01:58.644Z,89.42
2022-10-15T07:03:04.022Z,89.37
2022-10-15T07:04:02.295Z,89.34
2022-10-15T07:05:02.613Z,88.94
2022-10-15T07:06:04.586Z,88.88
2022-10-15T07:07:03.546Z,88.61
2022-10-15T07:08:04.161Z,88.68
2022-10-15T07:09:04.783Z,88.72
2022-10-15T07:10:05.609Z,88.39
2022-10-15T07:11:06.740Z,88.27
2022-10-15T07:12:05.924Z,88.59
2022-10-15T07:13:05.625Z,88.33
2022-10-15T07:14:06.474Z,88.74
2022-10-15T07:15:07.381Z,88.09
2022-10-15T07:16:11.899Z,87.9
2022-10-15T07:17:09.245Z,87.88
2022-10-15T07:18:09.550Z,87.63
2022-10-15T07:19:10.179Z,87.49
2022-10-15T07:20:11.115Z,87.66
2022-10-15T07:22:11.627Z,87.73
2022-10-15T07:23:11.734Z,87.7
2022-10-15T07:24:12.258Z,87.51
2022-10-15T07:25:12.466Z,87.42
2022-10-15T07:26:13.093Z,87.27
2022-10-15T07:27:20.087Z,87.52
2022-10-15T07:28:17.514Z,87.55
2022-10-15T07:29:18.127Z,87.47
2022-10-15T07:30:18.546Z,87.63
2022-10-15T07:31:18.750Z,87.88
2022-10-15T07:32:19.243Z,88.09
2022-10-15T07:33:19.582Z,87.95
2022-10-15T07:34:20.103Z,87.67
2022-10-15T07:35:20.278Z,87.9
2022-10-15T07:36:20.900Z,87.69
2022-10-15T07:37:21.206Z,88.01
2022-10-15T07:38:21.466Z,88.25
2022-10-15T07:39:22.081Z,88.12
2022-10-15T07:40:22.467Z,88.03
2022-10-15T07:41:22.913Z,88.11
2022-10-15T07:42:23.234Z,87.93
2022-10-15T07:43:23.749Z,87.8
2022-10-15T07:44:23.858Z,87.85
2022-10-15T07:45:25.191Z,87.78
2022-10-15T07:46:24.901Z,87.59
2022-10-15T07:47:25.484Z,87.43
2022-10-15T07:48:26.131Z,87.41
2022-10-15T07:49:26.139Z,87.4
2022-10-15T07:50:29.263Z,87.48
2022-10-15T07:51:29.744Z,87.26
2022-10-15T07:52:31.188Z,87.56
2022-10-15T07:53:31.202Z,87.46
2022-10-15T07:54:33.239Z,87.08
2022-10-15T07:55:31.502Z,86.93
2022-10-15T07:56:31.712Z,87.01
2022-10-15T07:57:32.136Z,87.35
2022-10-15T07:58:32.764Z,87.72
2022-10-15T07:59:33.788Z,87.3
2022-10-15T08:01:33.899Z,87
2022-10-15T08:02:34.109Z,87.48
2022-10-15T08:03:35.034Z,87.39
2022-10-15T08:04:34.942Z,87.19
2022-10-15T08:05:35.571Z,86.97
2022-10-15T08:06:35.774Z,86.6
2022-10-15T08:07:36.293Z,86.49
2022-10-15T08:08:37.231Z,86.48
2022-10-15T08:09:37.199Z,86.55
2022-10-15T08:10:37.465Z,86.84
2022-10-15T08:11:38.070Z,86.68
2022-10-15T08:12:38.287Z,86.71
2022-10-15T08:13:39.411Z,86.81
2022-10-15T08:14:38.959Z,87.16
2022-10-15T08:15:40.641Z,86.71
2022-10-15T08:16:39.946Z,86.67
2022-10-15T08:17:40.373Z,86.5
2022-10-15T08:18:40.974Z,86.71
2022-10-15T08:19:41.206Z,86.51
2022-10-15T08:20:41.500Z,86.13
2022-10-15T08:21:43.937Z,86.5
2022-10-15T08:22:44.181Z,86.44
2022-10-15T08:23:44.797Z,86.08
2022-10-15T08:24:45.009Z,86.25
2022-10-15T08:25:45.285Z,85.98
2022-10-15T08:26:45.837Z,85.8
2022-10-15T08:27:46.253Z,86
2022-10-15T08:28:46.804Z,85.88
2022-10-15T08:29:47.090Z,85.85
2022-10-15T08:30:47.411Z,85.51
2022-10-15T08:31:47.713Z,85.37
2022-10-15T08:32:48.341Z,84.54
2022-10-15T08:33:48.729Z,84.77
2022-10-15T08:34:49.164Z,84.84
2022-10-15T08:35:49.589Z,84.39
2022-10-15T08:36:49.796Z,84.03
2022-10-15T08:37:54.721Z,83.78
2022-10-15T08:38:52.226Z,83.99
2022-10-15T08:39:52.388Z,82.75
2022-10-15T08:40:55.970Z,83.28
2022-10-15T08:41:59.868Z,83.39
2022-10-15T08:42:57.922Z,83.31
2022-10-15T08:43:58.238Z,82.92
2022-10-15T08:45:06.848Z,83.14
2022-10-15T08:46:03.343Z,82.69
2022-10-15T08:49:06.564Z,82.96
2022-10-15T08:54:18.587Z,83.63
2022-10-15T08:55:20.172Z,83.47
2022-10-15T09:11:13.775Z,80.94
2022-10-15T09:15:15.347Z,79.4
2022-10-15T09:17:23.995Z,79.45
2022-10-15T09:19:26.325Z,79.79
2022-10-15T09:21:30.433Z,79.11
2022-10-15T09:22:33.727Z,79.5
2022-10-15T09:23:33.934Z,79.71
2022-10-15T09:24:32.298Z,79.96
2022-10-15T09:27:39.732Z,79.56
2022-10-15T09:28:47.737Z,79.54
2022-10-15T09:34:02.671Z,78.97
2022-10-15T09:35:01.356Z,78.67
2022-10-15T09:43:59.670Z,77.75
2022-10-15T09:45:07.880Z,78.11
2022-10-15T09:46:06.752Z,77.58
2022-10-15T09:49:16.703Z,76.54
2022-10-15T09:57:23.819Z,76.89
2022-10-15T09:59:24.614Z,76.38
2022-10-15T10:00:23.219Z,76.21
2022-10-15T10:01:29.223Z,76.2
2022-10-15T10:02:28.060Z,76.71
2022-10-15T10:03:32.336Z,76.46
2022-10-15T10:04:32.251Z,76.07
2022-10-15T10:05:33.067Z,76.42
2022-10-15T10:06:30.720Z,76.36
2022-10-15T10:07:36.843Z,76.51
2022-10-15T10:10:40.773Z,76.09
2022-10-15T10:12:43.978Z,76.26
2022-10-15T10:15:46.246Z,76.57
2022-10-15T10:17:57.111Z,75.95
2022-10-15T10:26:12.282Z,77.5
2022-10-15T10:28:25.078Z,77.08
2022-10-15T10:29:34.825Z,77.07
2022-10-15T10:30:17.941Z,77.42
2022-10-15T10:31:18.916Z,76.98
2022-10-15T10:36:37.317Z,78.55
2022-10-15T10:38:36.680Z,78.7
2022-10-15T10:39:35.107Z,78.74
2022-10-15T10:40:36.278Z,79.15
2022-10-15T10:42:37.438Z,79.65
2022-10-15T10:44:42.242Z,79.82
2022-10-15T10:46:43.870Z,80.65
2022-10-15T10:47:44.545Z,80.02
2022-10-15T10:48:54.382Z,80.25
2022-10-15T10:49:55.190Z,80.43
2022-10-15T10:50:47.759Z,80.28
2022-10-15T10:51:50.865Z,80.33
2022-10-15T10:52:48.811Z,80.26
2022-10-15T10:54:01.723Z,80
2022-10-15T10:55:56.565Z,79.73
2022-10-15T10:56:54.816Z,79.13
2022-10-15T10:57:59.227Z,78.75
2022-10-15T10:59:57.515Z,78.07
2022-10-15T11:00:58.491Z,78.24
2022-10-15T11:01:58.236Z,78.63
2022-10-15T11:02:58.768Z,79.07
2022-10-15T11:03:58.828Z,79.45
2022-10-15T11:04:59.390Z,79.33
2022-10-15T11:57:18.986Z,84.61
2022-10-15T12:03:31.515Z,84.17
2022-10-15T12:05:39.720Z,83.72
2022-10-15T12:06:36.737Z,83.26
2022-10-15T12:07:40.243Z,83.02
2022-10-15T12:08:40.149Z,83.22
2022-10-15T12:09:44.978Z,83.28
2022-10-15T12:22:12.390Z,82.26
2022-10-15T12:27:32.602Z,82.49
2022-10-15T12:28:31.840Z,82.49
2022-10-15T12:29:30.665Z,82.31
2022-10-15T12:30:34.966Z,82.39
2022-10-15T12:33:47.789Z,82.4
2022-10-15T12:34:41.963Z,82.27
2022-10-15T12:35:40.742Z,82.52
2022-10-15T12:36:42.284Z,82.37
2022-10-15T12:37:43.942Z,82.25
2022-10-15T12:38:54.990Z,82.31
2022-10-15T12:39:59.517Z,82.21
2022-10-15T12:40:55.030Z,82.16
2022-10-15T12:41:49.386Z,82.01
2022-10-15T12:44:52.060Z,81.55
2022-10-15T12:46:56.800Z,81.75
2022-10-15T12:49:00.596Z,81.58
2022-10-15T13:03:36.428Z,81.58
2022-10-15T13:05:33.888Z,81.65
2022-10-15T13:06:34.979Z,81.59
2022-10-15T13:07:36.248Z,81.87
2022-10-15T13:08:33.690Z,82.08
2022-10-15T13:09:34.622Z,82.27
2022-10-15T13:12:36.377Z,82.1
2022-10-15T13:13:36.896Z,82.03
2022-10-15T13:15:40.700Z,81.96
2022-10-15T13:16:48.186Z,81.92
2022-10-15T13:17:46.351Z,81.85
2022-10-15T13:18:50.776Z,82.04
2022-10-15T13:20:52.567Z,81.94
2022-10-15T13:21:53.746Z,81.86
2022-10-15T13:22:58.355Z,81.76
2022-10-15T13:23:54.592Z,81.86
2022-10-15T13:24:55.209Z,81.67
2022-10-15T13:26:57.247Z,82
2022-10-15T13:27:55.834Z,81.95
2022-10-15T13:28:59.404Z,82.1
2022-10-15T13:30:58.988Z,82.07
2022-10-15T13:31:58.742Z,82.01
2022-10-15T13:32:58.842Z,82.08
2022-10-15T13:35:11.346Z,82.19
2022-10-15T13:36:16.265Z,82.35
2022-10-15T13:37:20.175Z,82.33
2022-10-15T13:38:26.017Z,82.23
2022-10-15T13:42:26.042Z,82.8
2022-10-15T13:43:26.046Z,82.89
2022-10-15T13:44:24.926Z,82.89
2022-10-15T13:45:25.135Z,83.07
2022-10-15T13:46:28.315Z,82.91
2022-10-15T13:48:32.504Z,82.78
2022-10-15T13:49:31.023Z,82.73
2022-10-15T13:50:35.002Z,82.69
2022-10-15T13:51:40.712Z,82.33
2022-10-15T13:52:33.166Z,82.24
2022-10-15T13:53:40.754Z,82.02
2022-10-15T13:54:39.547Z,81.93
2022-10-15T13:55:43.434Z,82.09
2022-10-15T13:56:50.474Z,81.28
2022-10-15T13:58:47.743Z,81.52
2022-10-15T13:59:46.525Z,81.03
2022-10-15T14:01:49.408Z,81.11
2022-10-15T14:04:51.066Z,80.87
2022-10-15T14:05:53.221Z,80.74
2022-10-15T14:07:55.288Z,80.54
2022-10-15T14:09:59.807Z,80.53
2022-10-15T14:11:00.532Z,80.42
2022-10-15T14:12:03.461Z,80.35
2022-10-15T14:13:03.310Z,80.53
2022-10-15T14:14:01.675Z,80.57
2022-10-15T14:17:11.532Z,81.25
2022-10-15T14:18:09.793Z,81.23
2022-10-15T14:19:14.921Z,81.34
2022-10-15T14:20:32.662Z,81.46
2022-10-15T14:22:21.455Z,81.38
2022-10-15T14:24:23.358Z,81.61
2022-10-15T14:25:24.399Z,81.71
2022-10-15T14:26:24.900Z,81.65
2022-10-15T14:28:28.035Z,81.51
2022-10-15T14:30:34.711Z,81.83
2022-10-15T14:33:44.266Z,82.1
2022-10-15T14:34:41.861Z,82.24
2022-10-15T14:35:42.372Z,82.04
2022-10-15T14:36:43.400Z,81.97
2022-10-15T14:37:43.208Z,81.8
2022-10-15T14:38:43.609Z,81.98
2022-10-15T14:39:48.441Z,82.03
2022-10-15T14:46:08.667Z,82.97
2022-10-15T14:47:06.400Z,83.38
2022-10-15T14:48:15.131Z,83.43
2022-10-15T14:50:11.643Z,83.34
2022-10-15T14:51:23.134Z,83.49
2022-10-15T14:54:26.711Z,83.2
2022-10-15T14:55:31.147Z,82.98
2022-10-15T14:56:30.234Z,83.17
2022-10-15T14:57:36.903Z,83.32
2022-10-15T14:58:30.329Z,83.38
2022-10-15T14:59:33.404Z,83.36
2022-10-15T15:01:33.467Z,83.31
2022-10-15T15:02:33.841Z,83.13
2022-10-15T15:03:42.348Z,83.33
2022-10-15T15:04:40.467Z,83.36
2022-10-15T15:05:49.647Z,83.69
2022-10-15T15:06:42.683Z,83.71
2022-10-15T15:07:43.291Z,83.85
2022-10-15T15:08:44.081Z,83.57
2022-10-15T15:09:47.302Z,83.81
2022-10-15T15:10:45.451Z,84.02
2022-10-15T15:11:45.271Z,84
2022-10-15T15:12:56.637Z,84.03
2022-10-15T15:13:49.598Z,84.17
2022-10-15T15:14:49.895Z,84.34
2022-10-15T15:15:50.104Z,84.33
2022-10-15T15:16:50.543Z,84.5
2022-10-15T15:17:51.250Z,84.14
2022-10-15T15:18:51.261Z,84.16
2022-10-15T15:19:53.831Z,84.28
2022-10-15T15:20:52.801Z,84.63
2022-10-15T15:21:52.819Z,85.17
2022-10-15T15:22:54.887Z,85.17
2022-10-15T15:23:53.630Z,84.94
2022-10-15T15:24:53.854Z,85.15
2022-10-15T15:25:54.890Z,85.48
2022-10-15T15:26:54.795Z,85.16
2022-10-15T15:27:55.213Z,85.14
2022-10-15T15:28:55.785Z,85.34
2022-10-15T15:29:56.553Z,85.33
2022-10-15T15:30:59.019Z,85.38
2022-10-15T15:31:56.978Z,85.18
2022-10-15T15:32:57.908Z,85.49
2022-10-15T15:33:57.769Z,85.43
2022-10-15T15:34:58.905Z,85.36
2022-10-15T15:36:12.736Z,85.47
2022-10-15T15:37:01.322Z,85.53
2022-10-15T15:38:00.610Z,85.46
2022-10-15T15:39:01.083Z,85.43
2022-10-15T15:40:01.535Z,85.26
2022-10-15T15:41:13.727Z,85.05
2022-10-15T15:42:06.263Z,85.23
2022-10-15T15:43:06.671Z,85.17
2022-10-15T15:44:06.990Z,84.94
2022-10-15T15:46:07.934Z,84.87
2022-10-15T15:47:08.850Z,84.74
2022-10-15T15:48:09.164Z,84.73
2022-10-15T15:49:09.378Z,84.9
2022-10-15T15:50:09.796Z,84.99
2022-10-15T15:52:13.149Z,85.03
2022-10-15T15:53:12.894Z,85.14
2022-10-15T15:54:11.982Z,85.08
2022-10-15T15:55:13.108Z,84.95
2022-10-15T15:56:12.912Z,84.75
2022-10-15T15:57:13.950Z,84.93
2022-10-15T15:58:13.530Z,85.13
2022-10-15T15:59:14.152Z,85.31
2022-10-15T16:00:15.298Z,85.1
2022-10-15T16:01:15.015Z,85.03
2022-10-15T16:02:15.516Z,85.07
2022-10-15T16:03:15.729Z,85.03
2022-10-15T16:04:16.130Z,84.95
2022-10-15T16:05:16.820Z,84.91
2022-10-15T16:06:17.280Z,85
2022-10-15T16:07:19.526Z,85.02
2022-10-15T16:08:18.003Z,84.94
2022-10-15T16:09:19.341Z,84.84
2022-10-15T16:10:19.032Z,85.04
2022-10-15T16:11:19.150Z,85.05
2022-10-15T16:12:19.875Z,85.01
2022-10-15T16:13:20.188Z,85.02
2022-10-15T16:14:20.502Z,85.08
2022-10-15T16:15:23.798Z,85.06
2022-10-15T16:16:21.553Z,85.14
2022-10-15T16:17:22.199Z,85.09
2022-10-15T16:18:22.591Z,85.02
2022-10-15T16:19:22.688Z,84.7
2022-10-15T16:20:23.425Z,84.38
2022-10-15T16:21:27.108Z,84.38
2022-10-15T16:22:24.869Z,84.51
2022-10-15T16:23:25.070Z,84.66
2022-10-15T16:24:25.367Z,84.68
2022-10-15T16:25:29.207Z,84.69
2022-10-15T16:26:27.656Z,84.92
2022-10-15T16:27:28.524Z,84.99
2022-10-15T16:28:28.435Z,84.83
2022-10-15T16:29:28.905Z,84.48
2022-10-15T16:30:29.734Z,84.5
2022-10-15T16:31:30.530Z,84.63
2022-10-15T16:32:30.447Z,84.83
2022-10-15T16:33:30.561Z,84.77
2022-10-15T16:34:31.090Z,84.82
2022-10-15T16:35:31.394Z,85.1
2022-10-15T16:36:32.141Z,84.95
2022-10-15T16:37:32.450Z,84.89
2022-10-15T16:38:32.850Z,84.79
2022-10-15T16:39:33.175Z,84.72
2022-10-15T16:40:33.587Z,84.38
2022-10-15T16:41:34.207Z,84.41
2022-10-15T16:42:34.725Z,84.4
2022-10-15T16:43:36.185Z,84.28
2022-10-15T16:44:35.453Z,84.32
2022-10-15T16:45:35.866Z,84.48
2022-10-15T16:46:36.184Z,84.54
2022-10-15T16:47:37.026Z,84.4
2022-10-15T16:48:37.015Z,84.53
2022-10-15T16:49:37.520Z,84.55
2022-10-15T16:50:38.634Z,84.21
2022-10-15T16:51:42.879Z,83.98
2022-10-15T16:52:41.344Z,83.32
2022-10-15T16:53:43.802Z,83.23
2022-10-15T16:54:42.177Z,83.47
2022-10-15T16:55:42.894Z,83.74
2022-10-15T16:56:43.442Z,83.74
2022-10-15T16:57:43.479Z,83.87
2022-10-15T16:58:44.153Z,83.96
2022-10-15T16:59:44.358Z,84.09
2022-10-15T17:00:44.892Z,84.03
2022-10-15T17:01:45.281Z,83.96
2022-10-15T17:02:45.714Z,83.96
2022-10-15T17:03:46.241Z,83.97
2022-10-15T17:04:46.550Z,84.04
2022-10-15T17:05:47.077Z,83.69
2022-10-15T17:06:47.484Z,83.64
2022-10-15T17:07:47.806Z,83.36
2022-10-15T17:10:52.216Z,83.22
2022-10-15T17:11:54.682Z,83.3
2022-10-15T17:12:53.194Z,83.29
2022-10-15T17:13:55.409Z,83.49
2022-10-15T17:14:52.975Z,83.49
2022-10-15T17:15:55.847Z,83.31
2022-10-15T17:16:55.231Z,83.25
2022-10-15T17:17:55.599Z,82.93
2022-10-15T17:18:56.982Z,82.87
2022-10-15T17:19:56.685Z,82.79
2022-10-15T17:20:57.204Z,83
2022-10-15T17:21:57.407Z,83.11
2022-10-15T17:22:58.339Z,82.65
2022-10-15T17:24:00.606Z,82.54
2022-10-15T17:24:58.786Z,82.44
2022-10-15T17:26:59.699Z,82.36
2022-10-15T17:28:00.511Z,82.1
2022-10-15T17:29:00.839Z,82.19
2022-10-15T17:30:01.087Z,82.2
2022-10-15T17:31:09.146Z,81.98
2022-10-15T17:32:02.082Z,82.13
2022-10-15T17:33:02.806Z,82.01
2022-10-15T17:34:05.483Z,81.79
2022-10-15T17:35:04.389Z,81.82
2022-10-15T17:36:09.181Z,81.73
2022-10-15T17:37:06.819Z,81.86
2022-10-15T17:38:07.144Z,82.11
2022-10-15T17:39:07.454Z,82.1
2022-10-15T17:40:09.088Z,82.06
2022-10-15T17:41:11.069Z,82.34
2022-10-15T17:42:09.020Z,82.42
2022-10-15T17:43:09.424Z,82.03
2022-10-15T17:44:10.669Z,81.68
2022-10-15T17:45:11.286Z,81.66